sensor_id;sensor_type;location;lat;lon;timestamp;pressure;altitude;pressure_sealevel;temperature;humidity
60345;BME280;46188;52.324;8.032;2023-02-19T00:00:00;100361.81;;;8.75;100.00
60345;BME280;46188;52.324;8.032;2023-02-19T00:02:26;100375.84;;;8.75;100.00
60345;BME280;46188;52.324;8.032;2023-02-19T00:04:52;100373.13;;;8.69;100.00
60345;BME280;46188;52.324;8.032;2023-02-19T00:07:17;100381.16;;;8.78;100.00
60345;BME280;46188;52.324;8.032;2023-02-19T00:09:42;100382.69;;;8.64;100.00
60345;BME280;46188;52.324;8.032;2023-02-19T00:12:08;100389.81;;;8.71;100.00
60345;BME280;46188;52.324;8.032;2023-02-19T00:14:33;100388.09;;;8.73;100.00
60345;BME280;46188;52.324;8.032;2023-02-19T00:16:58;100391.63;;;8.75;100.00
60345;BME280;46188;52.324;8.032;2023-02-19T00:19:24;100389.81;;;8.71;100.00
60345;BME280;46188;52.324;8.032;2023-02-19T00:21:51;100386.22;;;8.66;100.00
60345;BME280;46188;52.324;8.032;2023-02-19T00:24:16;100385.28;;;8.62;100.00
60345;BME280;46188;52.324;8.032;2023-02-19T00:26:43;100381.03;;;8.69;100.00
60345;BME280;46188;52.324;8.032;2023-02-19T00:29:12;100371.41;;;8.71;100.00
60345;BME280;46188;52.324;8.032;2023-02-19T00:31:38;100372.19;;;8.67;100.00
60345;BME280;46188;52.324;8.032;2023-02-19T00:34:04;100375.66;;;8.63;100.00
60345;BME280;46188;52.324;8.032;2023-02-19T00:36:32;100381.00;;;8.67;100.00
60345;BME280;46188;52.324;8.032;2023-02-19T00:39:00;100375.59;;;8.60;100.00
60345;BME280;46188;52.324;8.032;2023-02-19T00:41:25;100373.00;;;8.61;100.00
60345;BME280;46188;52.324;8.032;2023-02-19T00:43:59;100372.19;;;8.64;100.00
60345;BME280;46188;52.324;8.032;2023-02-19T00:48:52;100366.16;;;8.71;100.00
60345;BME280;46188;52.324;8.032;2023-02-19T00:51:19;100368.00;;;8.77;100.00
60345;BME280;46188;52.324;8.032;2023-02-19T00:53:45;100351.22;;;8.70;100.00
60345;BME280;46188;52.324;8.032;2023-02-19T00:56:10;100353.84;;;8.70;100.00
60345;BME280;46188;52.324;8.032;2023-02-19T00:58:36;100350.38;;;8.71;100.00
60345;BME280;46188;52.324;8.032;2023-02-19T01:01:02;100356.53;;;8.73;100.00
60345;BME280;46188;52.324;8.032;2023-02-19T01:03:29;100357.41;;;8.71;100.00
60345;BME280;46188;52.324;8.032;2023-02-19T01:05:55;100355.56;;;8.66;100.00
60345;BME280;46188;52.324;8.032;2023-02-19T01:08:20;100362.63;;;8.69;100.00
60345;BME280;46188;52.324;8.032;2023-02-19T01:10:46;100359.13;;;8.72;100.00
60345;BME280;46188;52.324;8.032;2023-02-19T01:13:12;100359.91;;;8.64;100.00
60345;BME280;46188;52.324;8.032;2023-02-19T01:15:37;100360.78;;;8.65;100.00
60345;BME280;46188;52.324;8.032;2023-02-19T01:18:03;100365.13;;;8.63;100.00
60345;BME280;46188;52.324;8.032;2023-02-19T01:20:28;100361.66;;;8.64;100.00
60345;BME280;46188;52.324;8.032;2023-02-19T01:22:54;100364.25;;;8.62;100.00
60345;BME280;46188;52.324;8.032;2023-02-19T01:25:20;100364.28;;;8.65;100.00
60345;BME280;46188;52.324;8.032;2023-02-19T01:27:45;100352.81;;;8.60;100.00
60345;BME280;46188;52.324;8.032;2023-02-19T01:30:11;100357.25;;;8.63;100.00
60345;BME280;46188;52.324;8.032;2023-02-19T01:32:37;100355.53;;;8.65;100.00
60345;BME280;46188;52.324;8.032;2023-02-19T01:35:03;100352.94;;;8.66;100.00
60345;BME280;46188;52.324;8.032;2023-02-19T01:37:29;100350.22;;;8.62;100.00
60345;BME280;46188;52.324;8.032;2023-02-19T01:39:55;100357.22;;;8.61;100.00
60345;BME280;46188;52.324;8.032;2023-02-19T01:42:20;100350.28;;;8.65;100.00
60345;BME280;46188;52.324;8.032;2023-02-19T01:47:11;100345.97;;;8.70;100.00
60345;BME280;46188;52.324;8.032;2023-02-19T01:49:44;100351.22;;;8.70;100.00
60345;BME280;46188;52.324;8.032;2023-02-19T01:52:29;100353.00;;;8.71;100.00
60345;BME280;46188;52.324;8.032;2023-02-19T01:54:57;100353.06;;;8.74;100.00
60345;BME280;46188;52.324;8.032;2023-02-19T01:57:26;100347.78;;;8.73;100.00
60345;BME280;46188;52.324;8.032;2023-02-19T01:59:56;100351.16;;;8.64;100.00
60345;BME280;46188;52.324;8.032;2023-02-19T02:02:23;100341.56;;;8.67;100.00
60345;BME280;46188;52.324;8.032;2023-02-19T02:04:51;100343.34;;;8.70;100.00
60345;BME280;46188;52.324;8.032;2023-02-19T02:07:17;100343.31;;;8.68;100.00
60345;BME280;46188;52.324;8.032;2023-02-19T02:10:01;100339.84;;;8.70;100.00
60345;BME280;46188;52.324;8.032;2023-02-19T02:12:46;100342.41;;;8.66;100.00
60345;BME280;46188;52.324;8.032;2023-02-19T02:15:12;100341.56;;;8.67;100.00
60345;BME280;46188;52.324;8.032;2023-02-19T02:17:49;100337.09;;;8.63;100.00
60345;BME280;46188;52.324;8.032;2023-02-19T02:20:21;100345.84;;;8.61;100.00
60345;BME280;46188;52.324;8.032;2023-02-19T02:23:15;100349.44;;;8.66;100.00
60345;BME280;46188;52.324;8.032;2023-02-19T02:28:33;100343.22;;;8.61;100.00
60345;BME280;46188;52.324;8.032;2023-02-19T02:31:21;100342.38;;;8.65;100.00
60345;BME280;46188;52.324;8.032;2023-02-19T02:34:14;100344.13;;;8.63;100.00
60345;BME280;46188;52.324;8.032;2023-02-19T02:36:43;100339.78;;;8.66;100.00
60345;BME280;46188;52.324;8.032;2023-02-19T02:39:12;100338.91;;;8.66;100.00
60345;BME280;46188;52.324;8.032;2023-02-19T02:41:43;100348.56;;;8.68;100.00
60345;BME280;46188;52.324;8.032;2023-02-19T02:44:09;100347.72;;;8.70;100.00
60345;BME280;46188;52.324;8.032;2023-02-19T02:46:38;100344.97;;;8.62;100.00
60345;BME280;46188;52.324;8.032;2023-02-19T02:49:09;100338.00;;;8.64;100.00
60345;BME280;46188;52.324;8.032;2023-02-19T02:51:42;100342.38;;;8.63;100.00
60345;BME280;46188;52.324;8.032;2023-02-19T02:54:11;100345.84;;;8.61;100.00
60345;BME280;46188;52.324;8.032;2023-02-19T02:56:57;100338.78;;;8.58;100.00
60345;BME280;46188;52.324;8.032;2023-02-19T02:59:31;100335.34;;;8.62;100.00
60345;BME280;46188;52.324;8.032;2023-02-19T03:02:01;100338.00;;;8.62;100.00
60345;BME280;46188;52.324;8.032;2023-02-19T03:04:52;100337.00;;;8.57;100.00
60345;BME280;46188;52.324;8.032;2023-02-19T03:13:14;100352.78;;;8.59;100.00
60345;BME280;46188;52.324;8.032;2023-02-19T03:16:09;100340.47;;;8.55;100.00
60345;BME280;46188;52.324;8.032;2023-02-19T03:18:58;100351.06;;;8.59;100.00
60345;BME280;46188;52.324;8.032;2023-02-19T03:21:46;100357.09;;;8.54;100.00
60345;BME280;46188;52.324;8.032;2023-02-19T03:24:14;100364.19;;;8.58;100.00
60345;BME280;46188;52.324;8.032;2023-02-19T03:27:02;100367.66;;;8.57;100.00
60345;BME280;46188;52.324;8.032;2023-02-19T03:29:30;100364.97;;;8.54;100.00
60345;BME280;46188;52.324;8.032;2023-02-19T03:32:00;100364.06;;;8.52;100.00
60345;BME280;46188;52.324;8.032;2023-02-19T03:34:53;100379.75;;;8.48;100.00
60345;BME280;46188;52.324;8.032;2023-02-19T03:37:31;100378.91;;;8.49;100.00
60345;BME280;46188;52.324;8.032;2023-02-19T03:40:00;100378.00;;;8.47;100.00
60345;BME280;46188;52.324;8.032;2023-02-19T03:42:40;100372.69;;;8.44;100.00
60345;BME280;46188;52.324;8.032;2023-02-19T03:47:47;100381.38;;;8.42;100.00
60345;BME280;46188;52.324;8.032;2023-02-19T03:50:44;100383.22;;;8.44;100.00
60345;BME280;46188;52.324;8.032;2023-02-19T03:55:53;100390.94;;;8.38;100.00
60345;BME280;46188;52.324;8.032;2023-02-19T03:58:27;100391.72;;;8.32;100.00
60345;BME280;46188;52.324;8.032;2023-02-19T04:01:05;100394.38;;;8.34;100.00
60345;BME280;46188;52.324;8.032;2023-02-19T04:03:51;100400.53;;;8.36;100.00
60345;BME280;46188;52.324;8.032;2023-02-19T04:06:25;100395.25;;;8.35;100.00
60345;BME280;46188;52.324;8.032;2023-02-19T04:08:55;100396.97;;;8.32;100.00
60345;BME280;46188;52.324;8.032;2023-02-19T04:11:23;100397.84;;;8.33;100.00
60345;BME280;46188;52.324;8.032;2023-02-19T04:14:00;100398.69;;;8.32;100.00
60345;BME280;46188;52.324;8.032;2023-02-19T04:16:28;100400.53;;;8.36;100.00
60345;BME280;46188;52.324;8.032;2023-02-19T04:18:57;100404.88;;;8.34;100.00
60345;BME280;46188;52.324;8.032;2023-02-19T04:21:24;100424.25;;;8.39;100.00
60345;BME280;46188;52.324;8.032;2023-02-19T04:23:50;100420.66;;;8.34;100.00
60345;BME280;46188;52.324;8.032;2023-02-19T04:26:19;100429.38;;;8.33;100.00
60345;BME280;46188;52.324;8.032;2023-02-19T04:28:46;100426.63;;;8.28;100.00
60345;BME280;46188;52.324;8.032;2023-02-19T04:31:12;100432.84;;;8.32;100.00
60345;BME280;46188;52.324;8.032;2023-02-19T04:33:37;100440.69;;;8.30;100.00
60345;BME280;46188;52.324;8.032;2023-02-19T04:36:03;100440.69;;;8.30;100.00
60345;BME280;46188;52.324;8.032;2023-02-19T04:38:28;100445.06;;;8.30;100.00
60345;BME280;46188;52.324;8.032;2023-02-19T04:40:54;100448.59;;;8.32;100.00
60345;BME280;46188;52.324;8.032;2023-02-19T04:43:19;100452.94;;;8.30;100.00
60345;BME280;46188;52.324;8.032;2023-02-19T04:45:45;100456.41;;;8.29;100.00
60345;BME280;46188;52.324;8.032;2023-02-19T04:48:10;100443.25;;;8.26;100.00
60345;BME280;46188;52.324;8.032;2023-02-19T04:50:39;100461.56;;;8.23;100.00
60345;BME280;46188;52.324;8.032;2023-02-19T04:53:05;100464.19;;;8.23;100.00
60345;BME280;46188;52.324;8.032;2023-02-19T04:55:31;100472.84;;;8.19;100.00
60345;BME280;46188;52.324;8.032;2023-02-19T04:58:00;100479.88;;;8.20;100.00
60345;BME280;46188;52.324;8.032;2023-02-19T05:00:25;100485.81;;;8.12;100.00
60345;BME280;46188;52.324;8.032;2023-02-19T05:02:50;100491.97;;;8.11;100.00
60345;BME280;46188;52.324;8.032;2023-02-19T05:05:16;100495.47;;;8.12;100.00
60345;BME280;46188;52.324;8.032;2023-02-19T05:07:41;100494.59;;;8.11;100.00
60345;BME280;46188;52.324;8.032;2023-02-19T05:10:07;100500.63;;;8.09;100.00
60345;BME280;46188;52.324;8.032;2023-02-19T05:12:32;100502.34;;;8.07;100.00
60345;BME280;46188;52.324;8.032;2023-02-19T05:14:57;100500.56;;;8.04;100.00
60345;BME280;46188;52.324;8.032;2023-02-19T05:17:23;100500.59;;;8.07;100.00
60345;BME280;46188;52.324;8.032;2023-02-19T05:19:48;100503.31;;;8.10;100.00
60345;BME280;46188;52.324;8.032;2023-02-19T05:22:14;100501.53;;;8.09;100.00
60345;BME280;46188;52.324;8.032;2023-02-19T05:24:39;100508.44;;;8.06;100.00
60345;BME280;46188;52.324;8.032;2023-02-19T05:27:04;100519.84;;;8.06;100.00
60345;BME280;46188;52.324;8.032;2023-02-19T05:29:31;100532.25;;;8.13;100.00
60345;BME280;46188;52.324;8.032;2023-02-19T05:31:56;100542.72;;;8.12;100.00
60345;BME280;46188;52.324;8.032;2023-02-19T05:34:21;100553.06;;;8.04;100.00
60345;BME280;46188;52.324;8.032;2023-02-19T05:36:47;100558.09;;;7.95;100.00
60345;BME280;46188;52.324;8.032;2023-02-19T05:39:12;100571.47;;;7.69;100.00
60345;BME280;46188;52.324;8.032;2023-02-19T05:41:38;100582.56;;;7.57;100.00
60345;BME280;46188;52.324;8.032;2023-02-19T05:44:03;100583.06;;;7.43;100.00
60345;BME280;46188;52.324;8.032;2023-02-19T05:46:29;100589.63;;;7.25;100.00
60345;BME280;46188;52.324;8.032;2023-02-19T05:48:55;100591.38;;;7.26;100.00
60345;BME280;46188;52.324;8.032;2023-02-19T05:51:23;100594.88;;;7.25;100.00
60345;BME280;46188;52.324;8.032;2023-02-19T05:53:49;100599.28;;;7.28;100.00
60345;BME280;46188;52.324;8.032;2023-02-19T05:58:46;100601.94;;;7.29;100.00
60345;BME280;46188;52.324;8.032;2023-02-19T06:01:16;100611.44;;;7.24;100.00
60345;BME280;46188;52.324;8.032;2023-02-19T06:03:42;100619.78;;;7.09;100.00
60345;BME280;46188;52.324;8.032;2023-02-19T06:06:09;100625.03;;;7.09;100.00
60345;BME280;46188;52.324;8.032;2023-02-19T06:08:37;100625.91;;;7.10;100.00
60345;BME280;46188;52.324;8.032;2023-02-19T06:11:02;100638.13;;;7.09;100.00
60345;BME280;46188;52.324;8.032;2023-02-19T06:13:28;100636.22;;;7.04;100.00
60345;BME280;46188;52.324;8.032;2023-02-19T06:15:53;100648.34;;;7.00;100.00
60345;BME280;46188;52.324;8.032;2023-02-19T06:18:18;100656.19;;;7.00;100.00
60345;BME280;46188;52.324;8.032;2023-02-19T06:20:44;100661.34;;;6.95;100.00
60345;BME280;46188;52.324;8.032;2023-02-19T06:23:09;100661.97;;;6.88;100.00
60345;BME280;46188;52.324;8.032;2023-02-19T06:25:35;100676.00;;;6.89;100.00
60345;BME280;46188;52.324;8.032;2023-02-19T06:28:00;100685.28;;;6.77;100.00
60345;BME280;46188;52.324;8.032;2023-02-19T06:30:25;100682.59;;;6.76;100.00
60345;BME280;46188;52.324;8.032;2023-02-19T06:32:51;100689.66;;;6.78;100.00
60345;BME280;46188;52.324;8.032;2023-02-19T06:35:18;100692.84;;;6.68;100.00
60345;BME280;46188;52.324;8.032;2023-02-19T06:37:48;100703.84;;;6.56;100.00
60345;BME280;46188;52.324;8.032;2023-02-19T06:40:14;100716.19;;;6.60;100.00
60345;BME280;46188;52.324;8.032;2023-02-19T06:42:39;100716.06;;;6.56;100.00
60345;BME280;46188;52.324;8.032;2023-02-19T06:45:05;100719.22;;;6.45;100.00
60345;BME280;46188;52.324;8.032;2023-02-19T06:47:31;100728.13;;;6.51;100.00
60345;BME280;46188;52.324;8.032;2023-02-19T06:49:57;100743.94;;;6.54;100.00
60345;BME280;46188;52.324;8.032;2023-02-19T06:52:23;100745.69;;;6.55;100.00
60345;BME280;46188;52.324;8.032;2023-02-19T06:54:49;100755.25;;;6.53;100.00
60345;BME280;46188;52.324;8.032;2023-02-19T06:57:14;100754.81;;;6.39;100.00
60345;BME280;46188;52.324;8.032;2023-02-19T06:59:39;100765.34;;;6.42;100.00
60345;BME280;46188;52.324;8.032;2023-02-19T07:02:05;100770.69;;;6.45;100.00
60345;BME280;46188;52.324;8.032;2023-02-19T07:04:31;100779.41;;;6.44;100.00
60345;BME280;46188;52.324;8.032;2023-02-19T07:06:56;100776.75;;;6.42;100.00
60345;BME280;46188;52.324;8.032;2023-02-19T07:09:22;100784.53;;;6.41;100.00
60345;BME280;46188;52.324;8.032;2023-02-19T07:11:49;100797.63;;;6.41;100.00
60345;BME280;46188;52.324;8.032;2023-02-19T07:14:15;100802.06;;;6.43;100.00
60345;BME280;46188;52.324;8.032;2023-02-19T07:16:41;100802.94;;;6.42;100.00
60345;BME280;46188;52.324;8.032;2023-02-19T07:19:09;100801.69;;;6.31;100.00
60345;BME280;46188;52.324;8.032;2023-02-19T07:21:34;100807.78;;;6.32;100.00
60345;BME280;46188;52.324;8.032;2023-02-19T07:24:02;100810.41;;;6.32;100.00
60345;BME280;46188;52.324;8.032;2023-02-19T07:26:28;100819.91;;;6.28;100.00
60345;BME280;46188;52.324;8.032;2023-02-19T07:28:54;100832.94;;;6.26;100.00
60345;BME280;46188;52.324;8.032;2023-02-19T07:31:22;100834.84;;;6.31;100.00
60345;BME280;46188;52.324;8.032;2023-02-19T07:33:48;100843.41;;;6.26;100.00
60345;BME280;46188;52.324;8.032;2023-02-19T07:36:15;100850.22;;;6.21;100.00
60345;BME280;46188;52.324;8.032;2023-02-19T07:38:41;100846.66;;;6.19;100.00
60345;BME280;46188;52.324;8.032;2023-02-19T07:41:07;100844.16;;;6.22;100.00
60345;BME280;46188;52.324;8.032;2023-02-19T07:43:34;100846.25;;;6.33;100.00
60345;BME280;46188;52.324;8.032;2023-02-19T07:46:11;100847.41;;;6.41;100.00
60345;BME280;46188;52.324;8.032;2023-02-19T07:48:38;100864.19;;;6.47;100.00
60345;BME280;46188;52.324;8.032;2023-02-19T07:51:07;100857.97;;;6.44;100.00
60345;BME280;46188;52.324;8.032;2023-02-19T07:53:33;100871.00;;;6.42;100.00
60345;BME280;46188;52.324;8.032;2023-02-19T07:56:00;100873.59;;;6.41;100.00
60345;BME280;46188;52.324;8.032;2023-02-19T07:58:27;100879.69;;;6.41;100.00
60345;BME280;46188;52.324;8.032;2023-02-19T08:00:52;100888.13;;;6.33;100.00
60345;BME280;46188;52.324;8.032;2023-02-19T08:03:18;100888.13;;;6.33;100.00
60345;BME280;46188;52.324;8.032;2023-02-19T08:05:43;100902.06;;;6.32;100.00
60345;BME280;46188;52.324;8.032;2023-02-19T08:08:13;100904.66;;;6.32;100.00
60345;BME280;46188;52.324;8.032;2023-02-19T08:10:39;100911.53;;;6.28;100.00
60345;BME280;46188;52.324;8.032;2023-02-19T08:13:25;100915.59;;;6.20;100.00
60345;BME280;46188;52.324;8.032;2023-02-19T08:15:53;100917.28;;;6.18;100.00
60345;BME280;46188;52.324;8.032;2023-02-19T08:18:22;100924.13;;;6.14;100.00
60345;BME280;46188;52.324;8.032;2023-02-19T08:20:47;100924.78;;;6.08;100.00
60345;BME280;46188;52.324;8.032;2023-02-19T08:23:13;100926.28;;;6.02;100.00
60345;BME280;46188;52.324;8.032;2023-02-19T08:25:39;100926.53;;;6.08;100.00
60345;BME280;46188;52.324;8.032;2023-02-19T08:28:07;100929.25;;;6.11;100.00
60345;BME280;46188;52.324;8.032;2023-02-19T08:30:33;100941.28;;;6.06;100.00
60345;BME280;46188;52.324;8.032;2023-02-19T08:32:59;100934.09;;;6.00;100.00
60345;BME280;46188;52.324;8.032;2023-02-19T08:35:26;100931.53;;;6.02;100.00
60345;BME280;46188;52.324;8.032;2023-02-19T08:38:01;100936.75;;;6.02;100.00
60345;BME280;46188;52.324;8.032;2023-02-19T08:40:26;100932.13;;;5.95;100.00
60345;BME280;46188;52.324;8.032;2023-02-19T08:42:52;100927.47;;;5.87;100.00
60345;BME280;46188;52.324;8.032;2023-02-19T08:45:17;100933.13;;;5.76;100.00
60345;BME280;46188;52.324;8.032;2023-02-19T08:47:44;100942.78;;;5.77;100.00
60345;BME280;46188;52.324;8.032;2023-02-19T08:50:10;100958.41;;;5.75;100.00
60345;BME280;46188;52.324;8.032;2023-02-19T08:52:36;100956.22;;;5.86;100.00
60345;BME280;46188;52.324;8.032;2023-02-19T08:55:05;100970.44;;;5.94;100.00
60345;BME280;46188;52.324;8.032;2023-02-19T08:57:31;100976.22;;;5.85;100.00
60345;BME280;46188;52.324;8.032;2023-02-19T08:59:56;100976.72;;;5.75;100.00
60345;BME280;46188;52.324;8.032;2023-02-19T09:02:22;100987.38;;;5.80;100.00
60345;BME280;46188;52.324;8.032;2023-02-19T09:04:48;100992.78;;;5.84;100.00
60345;BME280;46188;52.324;8.032;2023-02-19T09:07:14;100997.16;;;5.85;100.00
60345;BME280;46188;52.324;8.032;2023-02-19T09:09:39;100994.28;;;5.78;100.00
60345;BME280;46188;52.324;8.032;2023-02-19T09:12:10;101004.84;;;5.81;100.00
60345;BME280;46188;52.324;8.032;2023-02-19T09:14:37;101011.59;;;5.97;100.00
60345;BME280;46188;52.324;8.032;2023-02-19T09:17:04;101007.25;;;5.97;100.00
60345;BME280;46188;52.324;8.032;2023-02-19T09:19:29;101013.38;;;5.98;100.00
60345;BME280;46188;52.324;8.032;2023-02-19T09:21:55;101013.22;;;6.17;100.00
60345;BME280;46188;52.324;8.032;2023-02-19T09:24:21;101011.97;;;6.54;100.00
60345;BME280;46188;52.324;8.032;2023-02-19T09:26:51;101024.97;;;6.75;100.00
60345;BME280;46188;52.324;8.032;2023-02-19T09:29:17;101027.59;;;6.77;100.00
60345;BME280;46188;52.324;8.032;2023-02-19T09:31:42;101026.78;;;6.78;100.00
60345;BME280;46188;52.324;8.032;2023-02-19T09:34:08;101025.78;;;6.74;100.00
60345;BME280;46188;52.324;8.032;2023-02-19T09:36:33;101036.38;;;6.77;100.00
60345;BME280;46188;52.324;8.032;2023-02-19T09:38:59;101044.94;;;6.97;100.00
60345;BME280;46188;52.324;8.032;2023-02-19T09:41:31;101059.09;;;7.02;100.00
60345;BME280;46188;52.324;8.032;2023-02-19T09:43:58;101060.63;;;6.96;100.00
60345;BME280;46188;52.324;8.032;2023-02-19T09:46:29;101074.81;;;7.02;100.00
60345;BME280;46188;52.324;8.032;2023-02-19T09:49:10;101081.13;;;7.08;100.00
60345;BME280;46188;52.324;8.032;2023-02-19T09:51:38;101087.53;;;7.16;100.00
60345;BME280;46188;52.324;8.032;2023-02-19T09:54:11;101077.53;;;7.31;100.00
60345;BME280;46188;52.324;8.032;2023-02-19T09:56:39;101077.13;;;7.45;100.00
60345;BME280;46188;52.324;8.032;2023-02-19T09:59:05;101086.69;;;7.43;100.00
60345;BME280;46188;52.324;8.032;2023-02-19T10:01:33;101096.06;;;7.62;100.00
60345;BME280;46188;52.324;8.032;2023-02-19T10:04:02;101116.09;;;7.60;100.00
60345;BME280;46188;52.324;8.032;2023-02-19T10:06:28;101124.22;;;7.67;100.00
60345;BME280;46188;52.324;8.032;2023-02-19T10:09:10;101126.19;;;7.74;100.00
60345;BME280;46188;52.324;8.032;2023-02-19T10:11:38;101130.63;;;7.75;100.00
60345;BME280;46188;52.324;8.032;2023-02-19T10:14:06;101135.59;;;7.68;100.00
60345;BME280;46188;52.324;8.032;2023-02-19T10:16:35;101144.28;;;7.39;100.00
60345;BME280;46188;52.324;8.032;2023-02-19T10:19:08;101133.72;;;7.12;100.00
60345;BME280;46188;52.324;8.032;2023-02-19T10:21:36;101131.88;;;7.10;100.00
60345;BME280;46188;52.324;8.032;2023-02-19T10:24:04;101144.81;;;7.29;100.00
60345;BME280;46188;52.324;8.032;2023-02-19T10:26:30;101158.31;;;7.40;100.00
60345;BME280;46188;52.324;8.032;2023-02-19T10:29:04;101152.47;;;7.49;100.00
60345;BME280;46188;52.324;8.032;2023-02-19T10:31:31;101152.41;;;7.47;100.00
60345;BME280;46188;52.324;8.032;2023-02-19T10:33:59;101144.19;;;7.36;100.00
60345;BME280;46188;52.324;8.032;2023-02-19T10:36:38;101145.31;;;7.19;100.00
60345;BME280;46188;52.324;8.032;2023-02-19T10:39:24;101154.97;;;7.20;100.00
60345;BME280;46188;52.324;8.032;2023-02-19T10:41:54;101159.47;;;7.24;100.00
60345;BME280;46188;52.324;8.032;2023-02-19T10:44:22;101163.50;;;7.38;100.00
60345;BME280;46188;52.324;8.032;2023-02-19T10:46:51;101166.19;;;7.40;100.00
60345;BME280;46188;52.324;8.032;2023-02-19T10:49:38;101176.19;;;7.52;100.00
60345;BME280;46188;52.324;8.032;2023-02-19T10:54:45;101170.38;;;7.61;100.00
60345;BME280;46188;52.324;8.032;2023-02-19T11:00:00;101171.56;;;7.96;100.00
60345;BME280;46188;52.324;8.032;2023-02-19T11:02:26;101181.63;;;8.65;100.00
60345;BME280;46188;52.324;8.032;2023-02-19T11:05:15;101191.06;;;8.88;100.00
60345;BME280;46188;52.324;8.032;2023-02-19T11:07:47;101202.22;;;8.80;100.00
60345;BME280;46188;52.324;8.032;2023-02-19T11:10:24;101205.53;;;8.44;100.00
60345;BME280;46188;52.324;8.032;2023-02-19T11:12:53;101206.84;;;8.31;100.00
60345;BME280;46188;52.324;8.032;2023-02-19T11:17:54;101195.72;;;8.40;100.00
60345;BME280;46188;52.324;8.032;2023-02-19T11:20:20;101179.72;;;9.52;100.00
60345;BME280;46188;52.324;8.032;2023-02-19T11:22:48;101184.22;;;10.26;100.00
60345;BME280;46188;52.324;8.032;2023-02-19T11:30:45;101175.97;;;9.77;100.00
60345;BME280;46188;52.324;8.032;2023-02-19T11:35:51;101174.72;;;9.30;100.00
60345;BME280;46188;52.324;8.032;2023-02-19T11:38:18;101174.03;;;9.05;100.00
60345;BME280;46188;52.324;8.032;2023-02-19T11:41:07;101178.31;;;8.71;100.00
60345;BME280;46188;52.324;8.032;2023-02-19T11:44:06;101170.66;;;8.79;100.00
60345;BME280;46188;52.324;8.032;2023-02-19T11:49:36;101152.78;;;9.63;100.00
60345;BME280;46188;52.324;8.032;2023-02-19T12:06:36;101168.25;;;10.20;100.00
60345;BME280;46188;52.324;8.032;2023-02-19T12:12:06;101174.44;;;11.45;100.00
60345;BME280;46188;52.324;8.032;2023-02-19T12:22:31;101206.56;;;8.78;100.00
60345;BME280;46188;52.324;8.032;2023-02-19T12:25:24;101207.78;;;8.61;100.00
60345;BME280;46188;52.324;8.032;2023-02-19T12:44:35;101211.13;;;10.90;98.00
60345;BME280;46188;52.324;8.032;2023-02-19T12:47:03;101220.97;;;10.22;100.00
60345;BME280;46188;52.324;8.032;2023-02-19T12:49:43;101235.03;;;9.87;100.00
60345;BME280;46188;52.324;8.032;2023-02-19T12:52:31;101227.84;;;9.48;100.00
60345;BME280;46188;52.324;8.032;2023-02-19T12:55:10;101229.81;;;9.25;100.00
60345;BME280;46188;52.324;8.032;2023-02-19T12:57:42;101229.44;;;9.11;100.00
60345;BME280;46188;52.324;8.032;2023-02-19T13:03:20;101213.81;;;10.51;100.00
60345;BME280;46188;52.324;8.032;2023-02-19T13:08:37;101212.97;;;10.93;98.09
60345;BME280;46188;52.324;8.032;2023-02-19T13:11:09;101215.28;;;10.78;97.73
60345;BME280;46188;52.324;8.032;2023-02-19T13:13:59;101223.50;;;9.82;100.00
60345;BME280;46188;52.324;8.032;2023-02-19T13:16:28;101219.16;;;9.51;100.00
60345;BME280;46188;52.324;8.032;2023-02-19T13:19:00;101224.84;;;9.34;100.00
60345;BME280;46188;52.324;8.032;2023-02-19T13:21:29;101219.53;;;9.33;100.00
60345;BME280;46188;52.324;8.032;2023-02-19T13:24:22;101226.53;;;9.32;100.00
60345;BME280;46188;52.324;8.032;2023-02-19T13:36:57;101231.16;;;9.41;100.00
60345;BME280;46188;52.324;8.032;2023-02-19T13:39:23;101223.09;;;9.67;100.00
60345;BME280;46188;52.324;8.032;2023-02-19T13:41:51;101223.84;;;9.63;100.00
60345;BME280;46188;52.324;8.032;2023-02-19T13:44:20;101221.88;;;9.54;100.00
60345;BME280;46188;52.324;8.032;2023-02-19T13:46:48;101225.44;;;9.56;100.00
60345;BME280;46188;52.324;8.032;2023-02-19T13:49:38;101226.16;;;9.50;100.00
60345;BME280;46188;52.324;8.032;2023-02-19T13:54:48;101239.59;;;9.29;100.00
60345;BME280;46188;52.324;8.032;2023-02-19T13:59:46;101237.94;;;9.33;100.00
60345;BME280;46188;52.324;8.032;2023-02-19T14:02:27;101243.72;;;9.19;100.00
60345;BME280;46188;52.324;8.032;2023-02-19T14:05:01;101250.53;;;9.13;100.00
60345;BME280;46188;52.324;8.032;2023-02-19T14:09:56;101268.53;;;8.99;100.00
60345;BME280;46188;52.324;8.032;2023-02-19T14:12:32;101268.16;;;8.86;100.00
60345;BME280;46188;52.324;8.032;2023-02-19T14:17:49;101277.72;;;8.84;100.00
60345;BME280;46188;52.324;8.032;2023-02-19T14:22:47;101281.88;;;8.76;100.00
60345;BME280;46188;52.324;8.032;2023-02-19T14:30:55;101283.78;;;8.82;100.00
60345;BME280;46188;52.324;8.032;2023-02-19T14:35:53;101281.84;;;8.47;100.00
60345;BME280;46188;52.324;8.032;2023-02-19T14:38:45;101282.13;;;8.31;100.00
60345;BME280;46188;52.324;8.032;2023-02-19T14:41:13;101274.00;;;8.23;100.00
60345;BME280;46188;52.324;8.032;2023-02-19T14:43:40;101275.34;;;8.12;100.00
60345;BME280;46188;52.324;8.032;2023-02-19T14:46:16;101263.88;;;8.08;100.00
60345;BME280;46188;52.324;8.032;2023-02-19T14:48:47;101240.44;;;8.15;100.00
60345;BME280;46188;52.324;8.032;2023-02-19T14:51:24;101236.06;;;8.15;100.00
60345;BME280;46188;52.324;8.032;2023-02-19T14:53:53;101225.22;;;8.04;100.00
60345;BME280;46188;52.324;8.032;2023-02-19T14:56:24;101213.31;;;8.16;100.00
60345;BME280;46188;52.324;8.032;2023-02-19T14:59:25;101218.00;;;8.24;100.00
60345;BME280;46188;52.324;8.032;2023-02-19T15:01:56;101215.50;;;8.29;100.00